^^
Datos históricos de la estación: Murcia-Puente Tocinos
Diario Informe para Mayo 08, 2021 Unidades:  Ingés    Métrico   Ambas
Diario Semanal Mensual Anual
  Máxima: Mínima: Promedio:
Temperatura: 77.2 °F 60.1 °F 69.4 °F
Punto de rocio: 58.3 °F 48.9 °F 54.1 °F
Humedad: 75% 43.4% 59%
Velocidad viento: 14.5mph 0mph 5.7mph
Racha viento: 24.2mph - -
Viento- - Este
Presión: 30 in 29.9 in -
Precipitación: 0 in    
 
 
Tabla de datos para Mayo 08, 2021
Hora Temperatura Punto de rocio Presión Viento Velocidad viento Racha viento Humedad Intensidad lluvia(por hora) Nubes
00:04 67.5 °F 54.5 °F 30 in NNE 5.4 mph 8 mph 63% 0 in
00:09 67.3 °F 54.5 °F 30 in NNE 4.8 mph 7 mph 63.3% 0 in
00:14 67.3 °F 54.7 °F 30 in North 4.3 mph 7 mph 64% 0 in
00:15 67.1 °F 54.5 °F 30 in North 4.4 mph 5 mph 64% 0 in
00:24 66.9 °F 54.7 °F 30 in North 3.1 mph 5 mph 64.8% 0 in
00:29 66.7 °F 54.7 °F 30 in NNO 3 mph 4.6 mph 65% 0 in
00:34 66.7 °F 54.7 °F 30 in NNO 2.9 mph 5 mph 65% 0 in
00:39 66.7 °F 54.9 °F 30 in NO 2.9 mph 4.7 mph 65.5% 0 in
00:44 66.6 °F 54.9 °F 30 in NO 2.9 mph 5 mph 66% 0 in
00:49 66.6 °F 54.9 °F 30 in NO 2.6 mph 5 mph 66% 0 in
00:54 66.6 °F 54.9 °F 30 in NNO 2.4 mph 5 mph 66.2% 0 in
00:59 66.4 °F 55.2 °F 30 in NNO 2.4 mph 4.6 mph 67% 0 in
01:04 66.4 °F 55 °F 30 in NO 2.4 mph 5 mph 67% 0 in
01:09 66.4 °F 55 °F 30 in NNO 2.1 mph 3.5 mph 67% 0 in
01:14 66.4 °F 55 °F 30 in North 1.8 mph 3.5 mph 67% 0 in
01:19 66.4 °F 55 °F 30 in ENE 1.8 mph 4.6 mph 67% 0 in
01:24 66.4 °F 55 °F 30 in NE 1.8 mph 5 mph 67% 0 in
01:29 66.4 °F 55.4 °F 30 in NNE 2.5 mph 5 mph 68% 0 in
01:34 66.2 °F 55.2 °F 30 in North 2.9 mph 5 mph 68% 0 in
01:39 66 °F 55.4 °F 30 in NE 2.6 mph 4.6 mph 68.4% 0 in
01:44 65.8 °F 55.4 °F 30 in NE 2.4 mph 5 mph 69% 0 in
01:49 65.7 °F 55.2 °F 30 in NE 2.4 mph 4.6 mph 69% 0 in
01:54 65.5 °F 55 °F 30 in NE 2.4 mph 5 mph 69% 0 in
01:59 65.5 °F 55 °F 30 in NE 2.4 mph 4 mph 69% 0 in
02:04 65.3 °F 54.5 °F 30 in NE 2.4 mph 3 mph 68% 0 in
02:09 65.3 °F 54.9 °F 30 in NE 0.9 mph 4.7 mph 68.7% 0 in
02:14 65.1 °F 55 °F 30 in Calm   5 mph 69.8% 0 in
02:19 65.1 °F 55 °F 30 in North 1.1 mph 5 mph 70% 0 in
02:24 64.9 °F 54.9 °F 30 in North 1.8 mph 3.5 mph 70% 0 in
02:29 64.8 °F 54.7 °F 30 in North 1.8 mph 2.9 mph 70% 0 in
02:34 64.6 °F 54.7 °F 30 in North 1.8 mph 3.6 mph 70% 0 in
02:39 64.6 °F 54.9 °F 30 in North 2.2 mph 4 mph 71% 0 in
02:44 64.2 °F 54.9 °F 30 in North 2.4 mph 3.5 mph 71.3% 0 in
02:49 64.2 °F 55 °F 30 in North 2.2 mph 3.5 mph 72% 0 in
02:54 64 °F 54.9 °F 30 in North 2 mph 2.4 mph 72% 0 in
02:59 64 °F 54.9 °F 30 in North 1.6 mph 2.3 mph 72% 0 in
03:04 63.9 °F 54.3 °F 30 in ENE 1.4 mph 3.5 mph 71.2% 0 in
03:09 63.9 °F 53.4 °F 30 in Este 1.4 mph 3.6 mph 69% 0 in
03:10 63.9 °F 53.1 °F 30 in Este 1.3 mph 4 mph 68% 0 in
03:15 63.9 °F 52.7 °F 30 in Este 1.4 mph 3 mph 67% 0 in
03:24 64 °F 53.2 °F 30 in Este 1.8 mph 3 mph 67.8% 0 in
03:29 64.2 °F 53.8 °F 30 in NNE 1.6 mph 2.4 mph 69.1% 0 in
03:34 64.2 °F 54.1 °F 30 in North 1.4 mph 2 mph 69.8% 0 in
03:39 64 °F 54.1 °F 30 in North 0.6 mph   69.9% 0 in
03:44 64 °F 54 °F 30 in Calm   2.3 mph 69.8% 0 in
03:49 63.9 °F 54 °F 30 in Calm   2.9 mph 70% 0 in
03:54 63.7 °F 54 °F 30 in Calm   3 mph 70.6% 0 in
03:59 63.3 °F 53.8 °F 30 in NNO 1.1 mph 3.6 mph 71% 0 in
04:04 63.1 °F 53.6 °F 30 in Oeste 1.8 mph 4 mph 71% 0 in
04:09 63 °F 53.4 °F 30 in Oeste 1.8 mph 3.5 mph 71.1% 0 in
04:14 63 °F 53.8 °F 30 in Oeste 1.8 mph 3 mph 72% 0 in
04:19 62.8 °F 53.6 °F 30 in Oeste 0.8 mph 2.3 mph 72% 0 in
04:24 62.8 °F 53.6 °F 30 in Calm   2.3 mph 72% 0 in
04:29 62.8 °F 53.6 °F 30 in Calm   2.9 mph 72% 0 in
04:30 62.8 °F 53.6 °F 30 in Calm   3 mph 72% 0 in
04:39 62.8 °F 53.4 °F 30 in Oeste 0.8 mph 3 mph 71.7% 0 in
04:44 62.8 °F 52.9 °F 30 in SSO 1.4 mph 3.5 mph 70.2% 0 in
04:49 62.8 °F 52.3 °F 30 in SE 1.7 mph 3.5 mph 68.7% 0 in
04:54 63 °F 52.3 °F 30 in SSE 2 mph 3 mph 68.5% 0 in
04:59 63 °F 52.9 °F 30 in OSO 1.9 mph 3.6 mph 69.8% 0 in
05:04 63 °F 52.9 °F 30 in Oeste 1.8 mph 4 mph 70% 0 in
05:09 62.8 °F 52.9 °F 30 in Oeste 1.6 mph 3 mph 70% 0 in
05:14 62.6 °F 52.7 °F 30 in Oeste 1.4 mph 2.4 mph 70% 0 in
05:19 62.4 °F 52.7 °F 30 in Oeste 1.4 mph 2.4 mph 70.4% 0 in
05:24 62.2 °F 52.5 °F 30 in Oeste 1.4 mph 2.4 mph 70.6% 0 in
05:29 62.1 °F 52.2 °F 30 in ONO 1.4 mph 2.9 mph 70% 0 in
05:34 61.7 °F 51.8 °F 30 in NE 1.4 mph 3 mph 70% 0 in
05:39 61.5 °F 51.6 °F 30 in NE 1.6 mph 2.4 mph 70% 0 in
05:44 61.5 °F 51.6 °F 30 in ESE 1.8 mph 4.6 mph 70% 0 in
05:49 61.5 °F 51.6 °F 30 in SE 1.9 mph 5 mph 70% 0 in
05:54 61.3 °F 51.6 °F 30 in SE 2 mph 5 mph 70% 0 in
05:59 61.5 °F 51.4 °F 30 in SE 2.2 mph 5 mph 69.8% 0 in
06:04 61.5 °F 51.3 °F 30 in SE 2.4 mph 4 mph 69.1% 0 in
06:09 61.5 °F 51.3 °F 30 in SE 2.2 mph 4 mph 69% 0 in
06:14 61.5 °F 51.3 °F 30 in SE 2 mph 4.6 mph 69% 0 in
06:19 61.3 °F 51.1 °F 30 in SE 2.2 mph 5 mph 69% 0 in
06:24 61.2 °F 51.3 °F 30 in SE 2.4 mph 5 mph 69.8% 0 in
06:29 61.2 °F 51.3 °F 30 in SE 2.1 mph 3.5 mph 70% 0 in
06:34 61.2 °F 51.4 °F 30 in ESE 1.8 mph 3.5 mph 70.5% 0 in
06:39 61 °F 51.8 °F 30 in North 1.8 mph 3.5 mph 71.7% 0 in
06:44 60.6 °F 51.8 °F 30 in North 1.8 mph 3.5 mph 72.6% 0 in
06:49 60.4 °F 52 °F 30 in NNO 1.8 mph 3 mph 73.6% 0 in
06:54 60.3 °F 52 °F 30 in NNO 1.8 mph 3 mph 74% 0 in
06:59 60.3 °F 51.8 °F 30 in NNO 1.6 mph 2.3 mph 74% 0 in
07:04 60.1 °F 52 °F 30 in NNO 1.4 mph 2.3 mph 74.8% 0 in
07:09 60.1 °F 52.2 °F 30 in NNO 0.5 mph 2 mph 75% 0 in
07:14 60.1 °F 52.2 °F 30 in Calm   1.2 mph 75% 0 in
07:19 60.1 °F 52.2 °F 30 in Calm   3.1 mph 74.9% 0 in
07:24 60.3 °F 51.8 °F 30 in Calm   3.5 mph 74% 0 in
07:29 60.3 °F 52 °F 30 in Calm   2.9 mph 74% 0 in
07:34 60.4 °F 51.8 °F 30 in Calm   3.5 mph 73.2% 0 in
07:39 60.4 °F 51.8 °F 30 in Este 0.9 mph 3 mph 73% 0 in
07:44 60.6 °F 51.8 °F 30 in NNE 1.4 mph 3.5 mph 72.9% 0 in
07:49 61 °F 51.8 °F 30 in North 1.6 mph 3.5 mph 72% 0 in
07:54 61 °F 51.8 °F 30 in North 1.8 mph 3.6 mph 71.8% 0 in
07:59 61 °F 51.8 °F 30 in North 1.9 mph 4 mph 71.9% 0 in
08:04 61.2 °F 52.2 °F 30 in North 2 mph 3 mph 72% 0 in
08:09 61.5 °F 52 °F 30 in North 1.7 mph 2.4 mph 71.1% 0 in
08:14 62.1 °F 52.3 °F 30 in NNE 1.4 mph 2.4 mph 70.7% 0 in
08:19 62.4 °F 52.2 °F 30 in NNE 1.4 mph 3.6 mph 69.2% 0 in
08:24 63 °F 52.3 °F 30 in North 1.4 mph 4 mph 68.6% 0 in
08:29 63 °F 52.3 °F 30 in NNO 1.7 mph 3.5 mph 68.4% 0 in
08:34 63.1 °F 52.7 °F 30 in NE 2 mph 3.5 mph 68.7% 0 in
08:39 63.7 °F 52.7 °F 30 in NNO 1.9 mph 3 mph 67.5% 0 in
08:44 64 °F 52.9 °F 30 in NNO 1.8 mph 3.6 mph 67.4% 0 in
08:49 64.4 °F 52.9 °F 30 in NNO 1.6 mph 4 mph 66.2% 0 in
08:54 64.8 °F 52.9 °F 30 in NNO 1.4 mph 4 mph 65.5% 0 in
08:59 64.8 °F 52.7 °F 30 in SE 1.4 mph 3 mph 65.2% 0 in
09:04 64.9 °F 53.2 °F 30 in Este 1.4 mph 2.9 mph 65.7% 0 in
09:09 65.5 °F 53.2 °F 30 in North 1.6 mph 4.6 mph 64.7% 0 in
09:14 65.8 °F 53.2 °F 30 in NO 1.8 mph 5 mph 64% 0 in
09:19 66 °F 53.4 °F 30 in NO 1.9 mph 4 mph 63.7% 0 in
09:24 66.2 °F 53.2 °F 30 in NO 2 mph 4.6 mph 63% 0 in
09:29 66.4 °F 53.2 °F 30 in NE 2 mph 5 mph 63% 0 in
09:34 66.6 °F 53.6 °F 30 in ENE 2 mph 5 mph 62.8% 0 in
09:39 66.9 °F 53.6 °F 30 in NE 2.2 mph 5.2 mph 62% 0 in
09:44 67.1 °F 53.6 °F 30 in NE 2.4 mph 7.4 mph 61.9% 0 in
09:49 67.1 °F 53.4 °F 30 in NNE 3.1 mph 7.4 mph 61.9% 0 in
09:54 66.7 °F 53.6 °F 30 in NE 3.6 mph 7 mph 62.5% 0 in
09:59 66.9 °F 54 °F 30 in NNE 3.9 mph 7 mph 63% 0 in
10:04 67.5 °F 54.3 °F 30 in NNE 4 mph 9.2 mph 63% 0 in
10:09 67.6 °F 54.7 °F 30 in NNE 4.4 mph 9.7 mph 63.2% 0 in
10:14 68 °F 55.4 °F 30 in NNE 4.7 mph 10 mph 64% 0 in
10:19 68.4 °F 55.6 °F 30 in NNE 5.2 mph 9.2 mph 64.2% 0 in
10:24 68.5 °F 56.1 °F 30 in North 5.4 mph 9 mph 64.9% 0 in
10:29 68.7 °F 56.3 °F 30 in NNE 5 mph 10 mph 64.5% 0 in
10:34 68.5 °F 55.9 °F 30 in North 4.7 mph 10.4 mph 64% 0 in
10:35 68.5 °F 55.9 °F 30 in North 4.7 mph 10.4 mph 64% 0 in
10:44 69.3 °F 56.1 °F 30 in NNE 6.2 mph 10.4 mph 63.3% 0 in
10:49 69.4 °F 56.5 °F 30 in NNE 6.2 mph 11.5 mph 63.1% 0 in
10:54 69.6 °F 56.1 °F 30 in NNE 6.2 mph 12 mph 62.1% 0 in
10:59 70.3 °F 56.1 °F 30 in NE 6.2 mph 10 mph 61% 0 in
11:04 71.2 °F 56.1 °F 30 in NE 6.2 mph 9.2 mph 58.9% 0 in
11:09 71.4 °F 55.4 °F 30 in NNE 6.2 mph 11.5 mph 56.9% 0 in
11:14 71.8 °F 55.8 °F 30 in NNE 6.2 mph 12 mph 57.1% 0 in
11:19 72.1 °F 55.6 °F 30 in NNE 5.8 mph 12.7 mph 56% 0 in
11:24 72.3 °F 55.9 °F 30 in NE 5.4 mph 13 mph 56.5% 0 in
11:29 72.5 °F 56.3 °F 30 in NNE 5.8 mph 12.7 mph 56.7% 0 in
11:34 72.9 °F 56.7 °F 30 in NNE 6.2 mph 13 mph 56.9% 0 in
11:39 73 °F 56.5 °F 30 in NNE 7.3 mph 13 mph 56.1% 0 in
11:44 73.4 °F 56.5 °F 30 in NNE 8.1 mph 12.5 mph 55.7% 0 in
11:49 73.8 °F 56.5 °F 30 in NNE 7.1 mph 13 mph 54.9% 0 in
11:54 73.9 °F 56.3 °F 30 in NNE 6.4 mph 13 mph 54.3% 0 in
11:59 73.9 °F 56.5 °F 30 in North 7.1 mph 14.7 mph 54.6% 0 in
12:04 73.9 °F 56.7 °F 30 in NNE 7.6 mph 15 mph 54.7% 0 in
12:09 74.1 °F 56.3 °F 30 in NNE 7.9 mph 14 mph 53.6% 0 in
12:14 74.7 °F 56.7 °F 30 in NNE 8.1 mph 13.8 mph 53.4% 0 in
12:19 75.2 °F 57 °F 30 in NNE 7.1 mph 14 mph 53.5% 0 in
12:24 75.9 °F 56.3 °F 30 in NE 6.4 mph 14.7 mph 50.6% 0 in
12:29 76.3 °F 55.9 °F 30 in NE 7 mph 15 mph 49.5% 0 in
12:34 76.5 °F 56.1 °F 30 in NE 7.4 mph 15.2 mph 49.6% 0 in
12:39 76.6 °F 55.6 °F 30 in ENE 7.4 mph 15 mph 48.4% 0 in
12:44 76.6 °F 55.8 °F 30 in NE 7.4 mph 13.5 mph 48.4% 0 in
12:49 76.8 °F 55.8 °F 30 in NE 7.5 mph 16.3 mph 48.4% 0 in
12:54 76.8 °F 55.6 °F 30 in NE 7.6 mph 16 mph 48% 0 in
12:59 76.6 °F 56.5 °F 30 in ENE 7.9 mph 15 mph 49.9% 0 in
13:04 76.8 °F 57 °F 30 in NE 8.1 mph 14 mph 50.4% 0 in
13:09 77.2 °F 57 °F 30 in NE 8.1 mph 18.5 mph 49.8% 0 in
13:14 76.8 °F 57.2 °F 30 in NE 8.1 mph 19.6 mph 50.7% 0 in
13:19 76.5 °F 58.1 °F 30 in NE 9.1 mph 20 mph 52.9% 0 in
13:24 76.6 °F 57.6 °F 30 in NNE 10 mph 17 mph 51.8% 0 in
13:29 76.6 °F 57.6 °F 30 in NE 9.8 mph 18.5 mph 51.9% 0 in
13:34 76.6 °F 57.2 °F 30 in NE 9.7 mph 19 mph 51% 0 in
13:39 76.6 °F 56.5 °F 30 in NE 10.3 mph 18 mph 49.7% 0 in
13:44 76.8 °F 56.7 °F 30 in NNE 10.7 mph 16.3 mph 49.9% 0 in
13:49 76.8 °F 56.7 °F 30 in NE 9.8 mph 18.4 mph 49.7% 0 in
13:54 76.8 °F 56.3 °F 30 in NE 9.2 mph 18 mph 49.3% 0 in
13:59 76.5 °F 56.7 °F 30 in NNE 10.5 mph 19.6 mph 50.2% 0 in
14:04 76.5 °F 57.7 °F 30 in NNE 11.2 mph 20 mph 52.4% 0 in
14:09 76.5 °F 57.9 °F 30 in NE 10.9 mph 20 mph 52.7% 0 in
14:14 76.5 °F 57.6 °F 30 in NE 10.7 mph 18 mph 51.8% 0 in
14:19 76.5 °F 57.7 °F 30 in NE 10.3 mph 19.6 mph 52.5% 0 in
14:24 76.5 °F 58.1 °F 30 in NE 10 mph 21.9 mph 52.9% 0 in
14:29 76.8 °F 57.9 °F 30 in NE 10.4 mph 22 mph 52.2% 0 in
14:34 77 °F 57.7 °F 30 in NNE 10.7 mph 19.2 mph 51.7% 0 in
14:39 76.8 °F 57.7 °F 30 in NNE 10.9 mph 20 mph 51.6% 0 in
14:44 76.6 °F 58.3 °F 30 in NNE 11.2 mph 20 mph 52.9% 0 in
14:49 77 °F 58.3 °F 30 in NNE 11.2 mph 21.3 mph 52.6% 0 in
14:54 77 °F 57.9 °F 30 in NNE 11.2 mph 21 mph 52% 0 in
14:59 76.5 °F 58.3 °F 30 in NNE 12 mph 21.3 mph 53.2% 0 in
15:04 76.3 °F 58.3 °F 30 in NNE 12.5 mph 23 mph 53.6% 0 in
15:09 76.1 °F 57.9 °F 30 in NNE 13.1 mph 23 mph 53.1% 0 in
15:14 76.3 °F 58.1 °F 30 in NNE 13.5 mph 21.3 mph 53.3% 0 in
15:19 76.1 °F 57.9 °F 29.9 in NNE 14.1 mph 24.2 mph 53.1% 0 in
15:24 76.3 °F 57.9 °F 29.9 in NE 14.5 mph 24 mph 53.1% 0 in
15:29 76.3 °F 57.4 °F 29.9 in NNE 14 mph 22 mph 52.1% 0 in
15:34 76.6 °F 57.2 °F 29.9 in NNE 13.7 mph 22 mph 51% 0 in
15:39 76.6 °F 57.2 °F 29.9 in NE 12.6 mph 21.5 mph 51.1% 0 in
15:44 76.5 °F 57 °F 29.9 in NE 11.8 mph 22 mph 51.1% 0 in
15:49 76.5 °F 57 °F 29.9 in NE 12.7 mph 20 mph 51.1% 0 in
15:54 76.3 °F 57.4 °F 29.9 in NE 13.5 mph 23.5 mph 51.8% 0 in
15:59 76.1 °F 57.2 °F 29.9 in NE 13.6 mph 23 mph 52% 0 in
16:04 76.3 °F 57.4 °F 29.9 in NE 13.7 mph 20.8 mph 52% 0 in
16:09 76.6 °F 57.4 °F 29.9 in NE 12.6 mph 21.5 mph 51.3% 0 in
16:14 76.6 °F 57 °F 29.9 in NE 11.8 mph 22 mph 50.7% 0 in
16:19 76.8 °F 56.7 °F 29.9 in NNE 11.8 mph 22 mph 49.9% 0 in
16:24 76.8 °F 56.7 °F 29.9 in NE 11.8 mph 21 mph 49.9% 0 in
16:29 77 °F 56.7 °F 29.9 in NNE 12.1 mph 20.7 mph 49.6% 0 in
16:34 76.8 °F 56.3 °F 29.9 in NNE 12.3 mph 21 mph 49% 0 in
16:39 77.2 °F 56.5 °F 29.9 in NNE 11.8 mph 21.9 mph 48.8% 0 in
16:44 76.8 °F 55.8 °F 29.9 in NNE 11.4 mph 22 mph 48.2% 0 in
16:49 77 °F 55.9 °F 29.9 in NNE 11.3 mph 20.7 mph 48.2% 0 in
16:54 77 °F 55.6 °F 29.9 in NE 11.2 mph 21 mph 47.7% 0 in
16:59 76.8 °F 55.4 °F 29.9 in NNE 11.6 mph 19 mph 47.5% 0 in
17:04 77.2 °F 55.6 °F 29.9 in NE 11.8 mph 19 mph 47.2% 0 in
17:09 77 °F 55.2 °F 29.9 in NE 11.2 mph 19 mph 47% 0 in
17:14 76.6 °F 55.2 °F 29.9 in NNE 10.7 mph 21.9 mph 47.4% 0 in
17:19 76.5 °F 55 °F 29.9 in NE 11.8 mph 22 mph 47.6% 0 in
17:24 76.5 °F 54.7 °F 29.9 in NNE 12.5 mph 19.7 mph 47% 0 in
17:29 76.5 °F 54.9 °F 29.9 in NNE 12.4 mph 22.3 mph 47.3% 0 in
17:34 76.5 °F 54.7 °F 29.9 in NNE 12.3 mph 22 mph 47% 0 in
17:39 76.5 °F 55 °F 29.9 in NNE 11.1 mph 19 mph 47.7% 0 in
17:44 75.9 °F 54.9 °F 29.9 in NNE 10.2 mph 18 mph 47.9% 0 in
17:49 75.9 °F 54.7 °F 29.9 in NE 10.7 mph 17.5 mph 47.8% 0 in
17:54 75.7 °F 54.5 °F 29.9 in NNE 11.2 mph 18.4 mph 47.8% 0 in
17:59 75.6 °F 55 °F 29.9 in NE 11.3 mph 19 mph 48.8% 0 in
18:04 75.4 °F 54.7 °F 29.9 in NE 11.4 mph 19.6 mph 48.6% 0 in
18:09 75.4 °F 54.1 °F 29.9 in NE 12.1 mph 20 mph 47.9% 0 in
18:14 75.4 °F 54.3 °F 29.9 in NE 12.5 mph 19.6 mph 47.9% 0 in
18:19 75.4 °F 54 °F 29.9 in NNE 12.5 mph 17.5 mph 47.4% 0 in
18:24 75.2 °F 54.1 °F 29.9 in NE 12.5 mph 17.3 mph 47.9% 0 in
18:29 74.8 °F 53.8 °F 29.9 in NNE 11 mph 18.5 mph 47.9% 0 in
18:34 74.7 °F 53.6 °F 29.9 in NE 10 mph 19 mph 47.9% 0 in
18:39 74.7 °F 54 °F 29.9 in NE 10.4 mph 18 mph 48.4% 0 in
18:44 74.7 °F 54.1 °F 29.9 in NE 10.7 mph 17.5 mph 49% 0 in
18:49 74.7 °F 54.1 °F 29.9 in NE 10.7 mph 17 mph 49% 0 in
18:54 74.7 °F 54 °F 29.9 in NNE 10.7 mph 16.3 mph 48.6% 0 in
18:59 74.7 °F 53.6 °F 29.9 in NE 10.1 mph 16.3 mph 47.7% 0 in
19:04 74.7 °F 53.4 °F 29.9 in NE 9.7 mph 18.4 mph 47.5% 0 in
19:09 74.7 °F 52.9 °F 29.9 in NE 10.5 mph 18 mph 46.9% 0 in
19:14 74.3 °F 52.7 °F 29.9 in NE 11.2 mph 17 mph 46.9% 0 in
19:19 74.1 °F 52.5 °F 29.9 in NNE 10.3 mph 16 mph 46.9% 0 in
19:24 74.1 °F 52.3 °F 29.9 in NNE 9.7 mph 15 mph 46.5% 0 in
19:29 73.9 °F 52.3 °F 29.9 in NE 9.1 mph 15.2 mph 46.9% 0 in
19:34 73.8 °F 53.1 °F 29.9 in NE 8.7 mph 15 mph 48.6% 0 in
19:39 73.6 °F 53.6 °F 29.9 in NE 8.1 mph 14 mph 49.8% 0 in
19:44 73.6 °F 53.8 °F 29.9 in NE 7.6 mph 13 mph 50% 0 in
19:49 73.2 °F 52.5 °F 29.9 in NNE 7.1 mph 13 mph 48.4% 0 in
19:54 73.2 °F 51.8 °F 29.9 in NNE 6.9 mph 13 mph 47.2% 0 in
19:59 73.2 °F 51.3 °F 29.9 in NNE 7.3 mph 11.5 mph 46.2% 0 in
20:04 73 °F 50.9 °F 29.9 in NNE 7.6 mph 13.7 mph 45.8% 0 in
20:09 73 °F 50.2 °F 29.9 in NE 7.9 mph 14 mph 44.6% 0 in
20:14 72.9 °F 49.3 °F 29.9 in NNE 8.1 mph 16.1 mph 43.4% 0 in
20:19 72.7 °F 49.1 °F 29.9 in NE 9.1 mph 16 mph 43.4% 0 in
20:24 72.7 °F 49.5 °F 29.9 in NNE 9.7 mph 13 mph 44% 0 in
20:29 72.3 °F 49.8 °F 29.9 in NNE 8.5 mph 13 mph 44.9% 0 in
20:34 72.1 °F 50 °F 29.9 in NE 7.6 mph 12.7 mph 45.5% 0 in
20:39 72.1 °F 49.6 °F 29.9 in NE 7.1 mph 13 mph 45.3% 0 in
20:44 72 °F 49.5 °F 29.9 in NE 6.9 mph 12 mph 45% 0 in
20:49 71.8 °F 49.3 °F 29.9 in NE 6 mph 12 mph 45% 0 in
20:54 71.8 °F 49.3 °F 29.9 in NE 5.4 mph 7 mph 45% 0 in
20:59 71.4 °F 49.1 °F 29.9 in NE 4.5 mph 6.4 mph 45% 0 in
21:04 71.2 °F 49.1 °F 29.9 in NE 4 mph 7 mph 45.4% 0 in
21:09 71.1 °F 49.3 °F 29.9 in NNE 4.2 mph 7 mph 46% 0 in
21:14 71.1 °F 49.1 °F 29.9 in NE 4.3 mph 7.4 mph 46% 0 in
21:19 70.9 °F 49.1 °F 29.9 in NE 3.9 mph 7 mph 46% 0 in
21:24 70.9 °F 49.1 °F 29.9 in NE 3.6 mph 6 mph 46% 0 in
21:29 70.7 °F 48.9 °F 29.9 in NE 3.6 mph 6.2 mph 46.1% 0 in
21:30 70.7 °F 49.5 °F 29.9 in NNE 3.5 mph 6 mph 47% 0 in
Murcia-Puente Tocinos, España
Compliments of Weather Underground - 2.75 mb

La estación de MeteoMurcia.com, publica sus datos en los siguientes proyectos:

Weather Underground PWS IMURCIAP2 Meteoclimatic www.awekas.at

W3Counter
Web Analytics